createdAt,value
2022-12-27T00:19:29.180Z,8.52
2022-12-27T00:39:31.640Z,8.42
2022-12-27T02:00:23.318Z,8.59
2022-12-27T02:20:25.871Z,7.70
2022-12-27T02:40:59.258Z,7.53
2022-12-27T03:01:23.752Z,7.52
2022-12-27T03:21:44.731Z,7.79
2022-12-27T03:42:07.029Z,7.55
2022-12-27T04:02:10.860Z,7.11
2022-12-27T04:22:32.338Z,5.78
2022-12-27T04:42:53.730Z,5.64
2022-12-27T06:24:09.276Z,3.17
2022-12-27T06:44:17.665Z,3.28
2022-12-27T07:04:20.212Z,3.15
2022-12-27T07:24:22.669Z,3.57
2022-12-27T07:44:25.400Z,3.45
2022-12-27T08:04:28.106Z,3.69
2022-12-27T08:24:30.699Z,3.89
2022-12-27T08:44:33.390Z,3.70
2022-12-27T09:04:36.106Z,3.87
2022-12-27T09:24:38.593Z,4.46
2022-12-27T09:44:41.181Z,4.13
2022-12-27T10:05:18.505Z,4.40
2022-12-27T10:25:06.304Z,4.46
2022-12-27T10:45:13.885Z,4.91
2022-12-27T11:05:21.558Z,4.95
2022-12-27T11:25:30.194Z,4.81
2022-12-27T11:45:34.928Z,6.01
2022-12-27T12:05:40.318Z,5.77
2022-12-27T13:06:16.928Z,5.17
2022-12-27T13:26:19.438Z,4.82
2022-12-27T13:46:22.155Z,5.32
2022-12-27T14:06:24.942Z,5.18
2022-12-27T14:26:27.495Z,5.28
2022-12-27T14:46:30.352Z,5.26
2022-12-27T15:06:33.251Z,4.71
2022-12-27T15:26:35.868Z,4.56
2022-12-27T15:46:38.593Z,3.46
2022-12-27T16:06:41.260Z,3.20
2022-12-27T16:26:43.732Z,3.20
2022-12-27T16:46:46.522Z,3.95
2022-12-27T17:06:49.231Z,4.13
2022-12-27T17:26:51.975Z,4.06
2022-12-27T17:46:54.742Z,4.04
2022-12-27T18:06:57.477Z,4.19
2022-12-27T18:27:00.330Z,4.13
2022-12-27T18:47:02.884Z,4.07
2022-12-27T19:07:05.396Z,3.76
2022-12-27T19:27:07.865Z,3.59
2022-12-27T19:47:10.541Z,3.24
2022-12-27T20:07:13.264Z,2.85
2022-12-27T20:27:15.759Z,2.13
2022-12-27T20:47:18.505Z,1.89
2022-12-27T21:07:21.958Z,2.72
2022-12-27T21:27:25.619Z,2.73
2022-12-27T21:47:30.365Z,3.27
2022-12-27T22:07:33.001Z,3.46
2022-12-27T22:27:35.441Z,3.45
2022-12-27T22:47:38.602Z,3.41
2022-12-27T23:08:03.327Z,3.55
2022-12-27T23:28:04.806Z,3.73
2022-12-27T23:48:07.800Z,3.42
